Time;durP1;ratioP1;P1;durP2;ratioP2;P2;SDS_P1;SDS_P2;PMS_P1;PMS_P2;Temp;Humidity;BMP_temperature;BMP_pressure;BME280_temperature;BME280_humidity;BME280_pressure;Samples;Min_cycle;Max_cycle;Signal;HPM_P1;HPM_P2
2022/12/22 03:26:58;;;;;;;31.08;6.93;;;15.00;99.90;;;;;;5053400;28;19930;-63
2022/12/22 03:29:24;;;;;;;36.65;7.82;;;15.00;99.90;;;;;;5052105;28;20115;-63
2022/12/22 03:31:49;;;;;;;34.70;8.00;;;14.90;99.90;;;;;;5052691;28;20040;-64
2022/12/22 03:34:15;;;;;;;38.47;7.32;;;14.90;99.90;;;;;;5053725;28;20114;-64
2022/12/22 03:36:41;;;;;;;36.08;7.70;;;14.90;99.90;;;;;;5051302;28;20066;-64
2022/12/22 03:39:06;;;;;;;39.33;7.43;;;14.90;99.90;;;;;;5052209;28;20082;-64
2022/12/22 03:47:00;;;;;;;39.72;7.53;;;14.80;99.90;;;;;;5053071;28;20401;-64
2022/12/22 03:49:26;;;;;;;39.25;8.52;;;14.80;99.90;;;;;;5052845;28;20029;-64
2022/12/22 03:51:53;;;;;;;33.50;7.78;;;14.80;99.90;;;;;;5052533;28;20032;-64
2022/12/22 03:54:21;;;;;;;34.92;7.57;;;14.70;99.90;;;;;;5052418;28;20033;-63
2022/12/22 03:56:47;;;;;;;44.00;8.77;;;14.70;99.90;;;;;;5053160;28;20023;-63
2022/12/22 03:59:14;;;;;;;40.35;8.13;;;14.70;99.90;;;;;;5052562;28;20036;-63
2022/12/22 04:01:51;;;;;;;43.00;8.27;;;14.70;99.90;;;;;;5052837;28;20024;-64
2022/12/22 04:04:18;;;;;;;39.80;8.57;;;14.70;99.90;;;;;;5052820;28;20519;-64
2022/12/22 04:06:44;;;;;;;43.00;8.85;;;14.60;99.90;;;;;;5052630;28;20016;-62
2022/12/22 04:09:11;;;;;;;47.70;9.07;;;14.60;99.90;;;;;;5052382;28;20057;-64
2022/12/22 04:14:21;;;;;;;41.88;7.85;;;14.60;99.90;;;;;;5052468;28;20588;-63
2022/12/22 04:16:47;;;;;;;47.38;8.60;;;14.50;99.90;;;;;;5052552;28;20027;-64
2022/12/22 04:19:14;;;;;;;40.65;8.93;;;14.50;99.90;;;;;;5052259;28;20433;-64
2022/12/22 04:21:40;;;;;;;38.28;8.13;;;14.40;99.90;;;;;;5052873;28;20044;-62
2022/12/22 04:24:06;;;;;;;34.03;7.75;;;14.40;99.90;;;;;;5051172;28;20494;-63
2022/12/22 04:26:32;;;;;;;36.58;7.85;;;14.30;99.90;;;;;;5052315;28;20049;-63
2022/12/22 04:28:58;;;;;;;39.58;7.63;;;14.30;99.90;;;;;;5052275;28;20412;-63
2022/12/22 04:31:23;;;;;;;40.83;8.30;;;14.30;99.90;;;;;;5052437;28;20063;-64
2022/12/22 04:33:49;;;;;;;36.15;7.22;;;14.30;99.90;;;;;;5052121;28;20091;-63
2022/12/22 04:36:15;;;;;;;42.08;7.65;;;14.30;99.90;;;;;;5051381;28;20033;-63
2022/12/22 04:38:41;;;;;;;30.10;7.30;;;14.30;99.90;;;;;;5052125;28;20029;-64
2022/12/22 04:41:08;;;;;;;33.05;7.47;;;14.20;99.90;;;;;;5051876;28;20075;-64
2022/12/22 04:43:34;;;;;;;40.88;7.78;;;14.20;99.90;;;;;;5050977;28;20107;-63
2022/12/22 04:46:00;;;;;;;40.75;7.88;;;14.20;99.90;;;;;;5052086;28;20063;-64
2022/12/22 04:48:28;;;;;;;34.00;7.72;;;14.20;99.90;;;;;;5052175;28;20045;-63
2022/12/22 04:50:55;;;;;;;35.00;7.60;;;14.20;99.90;;;;;;5052144;28;20021;-64
2022/12/22 04:53:22;;;;;;;36.45;7.65;;;14.10;99.90;;;;;;5051799;28;20021;-64
2022/12/22 04:55:50;;;;;;;37.50;7.05;;;14.00;99.90;;;;;;5052010;28;20036;-64
2022/12/22 04:58:16;;;;;;;36.03;7.03;;;14.10;99.90;;;;;;5051772;28;20115;-64
2022/12/22 05:00:42;;;;;;;35.33;6.97;;;14.10;99.90;;;;;;5051860;28;20417;-64
2022/12/22 05:03:08;;;;;;;36.90;7.70;;;14.10;99.90;;;;;;5052017;28;20043;-64
2022/12/22 05:05:36;;;;;;;40.50;7.03;;;14.00;99.90;;;;;;5054930;28;20359;-63
2022/12/22 05:08:03;;;;;;;37.47;7.15;;;14.00;99.90;;;;;;5055891;28;20021;-64
2022/12/22 05:10:29;;;;;;;32.55;7.10;;;14.00;99.90;;;;;;5056035;28;20097;-63
2022/12/22 05:12:55;;;;;;;33.20;7.13;;;14.00;99.90;;;;;;5055573;28;20036;-65
2022/12/22 05:15:32;;;;;;;38.58;7.15;;;14.00;99.90;;;;;;5056237;28;20534;-64
2022/12/22 05:17:59;;;;;;;32.38;6.65;;;14.00;99.90;;;;;;5055961;28;20481;-64
2022/12/22 05:20:25;;;;;;;35.78;7.07;;;14.00;99.90;;;;;;5055761;28;20025;-63
2022/12/22 05:22:51;;;;;;;37.67;7.05;;;13.90;99.90;;;;;;5055784;28;20029;-63
2022/12/22 05:25:17;;;;;;;33.22;7.35;;;13.80;99.90;;;;;;5055553;28;20036;-64
2022/12/22 05:27:43;;;;;;;36.72;7.32;;;13.80;99.90;;;;;;5055404;28;20059;-64
2022/12/22 05:30:10;;;;;;;35.08;6.78;;;13.80;99.90;;;;;;5056027;28;20519;-63
2022/12/22 05:32:35;;;;;;;29.30;6.60;;;13.80;99.90;;;;;;5055646;28;20025;-63
2022/12/22 05:35:02;;;;;;;32.38;6.85;;;13.80;99.90;;;;;;5055483;28;20440;-64
2022/12/22 05:37:29;;;;;;;35.50;7.13;;;13.80;99.90;;;;;;5054944;28;20472;-63
2022/12/22 05:39:55;;;;;;;32.17;6.30;;;13.70;99.90;;;;;;5054794;28;20028;-64
2022/12/22 05:42:36;;;;;;;31.15;6.50;;;13.70;99.90;;;;;;5055408;28;20384;-64
2022/12/22 05:45:19;;;;;;;37.35;6.80;;;13.70;99.90;;;;;;5055801;28;20037;-64
2022/12/22 05:47:51;;;;;;;34.53;7.30;;;13.70;99.90;;;;;;5055551;28;20021;-64
2022/12/22 05:50:20;;;;;;;30.13;6.25;;;13.70;99.90;;;;;;5055303;28;20040;-64
2022/12/22 05:52:46;;;;;;;33.03;6.97;;;13.70;99.90;;;;;;5054119;28;20035;-63
2022/12/22 05:55:13;;;;;;;34.33;6.53;;;13.60;99.90;;;;;;5054822;28;20036;-64
2022/12/22 05:57:39;;;;;;;31.85;6.78;;;13.60;99.90;;;;;;5055384;28;20024;-64
2022/12/22 06:00:07;;;;;;;29.85;6.97;;;13.60;99.90;;;;;;5055195;28;20028;-64
2022/12/22 06:02:33;;;;;;;32.83;7.45;;;13.60;99.90;;;;;;5055271;28;20028;-64
2022/12/22 06:04:59;;;;;;;30.02;6.40;;;13.60;99.90;;;;;;5055069;28;20017;-64
2022/12/22 06:07:24;;;;;;;28.33;6.00;;;13.60;99.90;;;;;;5055198;28;20017;-64
2022/12/22 06:09:50;;;;;;;29.85;6.50;;;13.60;99.90;;;;;;5054277;28;20489;-62
2022/12/22 06:12:16;;;;;;;29.00;5.95;;;13.60;99.90;;;;;;5054938;28;20382;-64
2022/12/22 06:14:41;;;;;;;37.30;6.68;;;13.60;99.90;;;;;;5054799;28;20051;-63
2022/12/22 06:17:07;;;;;;;34.80;6.47;;;13.60;99.90;;;;;;5054870;28;20040;-64
2022/12/22 06:19:33;;;;;;;32.38;6.32;;;13.60;99.90;;;;;;5054788;28;20463;-63
2022/12/22 06:21:59;;;;;;;30.90;6.32;;;13.60;99.90;;;;;;5054737;28;20506;-64
2022/12/22 06:24:24;;;;;;;29.25;6.32;;;13.50;99.90;;;;;;5054323;28;20100;-64
2022/12/22 06:26:50;;;;;;;30.27;6.20;;;13.40;99.90;;;;;;5054569;28;20037;-63
2022/12/22 06:29:16;;;;;;;28.88;6.57;;;13.40;99.90;;;;;;5053645;28;20238;-63
2022/12/22 06:31:42;;;;;;;33.55;6.78;;;13.40;99.90;;;;;;5054540;28;20448;-63
2022/12/22 06:34:09;;;;;;;27.95;6.90;;;13.40;99.90;;;;;;5054290;28;20043;-64
2022/12/22 06:36:35;;;;;;;33.00;6.88;;;13.40;99.90;;;;;;5054468;28;20485;-64
2022/12/22 06:39:01;;;;;;;31.40;6.55;;;13.40;99.90;;;;;;5054144;28;20029;-64
2022/12/22 06:44:10;;;;;;;;;;;13.40;99.90;;;;;;5055387;28;20055;-64
2022/12/22 06:46:36;;;;;;;30.17;6.32;;;13.30;99.90;;;;;;5054289;28;19909;-64
2022/12/22 06:49:02;;;;;;;34.30;6.55;;;13.30;99.90;;;;;;5054256;28;20033;-64
2022/12/22 06:51:27;;;;;;;26.15;5.88;;;13.30;99.90;;;;;;5054373;28;20075;-64
2022/12/22 06:53:53;;;;;;;28.73;6.65;;;13.20;99.90;;;;;;5053978;28;20037;-64
2022/12/22 06:56:19;;;;;;;27.50;6.75;;;13.20;99.90;;;;;;5054178;28;20025;-63
2022/12/22 06:58:44;;;;;;;26.50;6.57;;;13.10;99.90;;;;;;5054133;28;20025;-64
2022/12/22 07:01:10;;;;;;;25.75;6.18;;;13.10;99.90;;;;;;5054388;28;20021;-64
2022/12/22 07:03:36;;;;;;;27.50;6.38;;;13.20;99.90;;;;;;5054040;28;20028;-64
2022/12/22 07:06:02;;;;;;;33.22;7.47;;;13.20;99.90;;;;;;5053853;28;20025;-64
2022/12/22 07:08:27;;;;;;;29.13;7.32;;;13.10;99.90;;;;;;5053363;28;20029;-63
2022/12/22 07:10:59;;;;;;;32.03;7.75;;;13.00;99.90;;;;;;5053844;28;20056;-64
2022/12/22 07:13:28;;;;;;;33.05;7.95;;;12.90;99.90;;;;;;5053783;28;20052;-64
2022/12/22 07:15:54;;;;;;;31.92;7.80;;;12.80;99.90;;;;;;5054084;28;20032;-64
2022/12/22 07:18:20;;;;;;;29.45;6.85;;;12.80;99.90;;;;;;5054012;28;20025;-64
2022/12/22 07:20:45;;;;;;;29.13;6.82;;;12.60;99.90;;;;;;5053620;28;20021;-63
2022/12/22 07:23:11;;;;;;;29.80;7.30;;;12.50;99.90;;;;;;5052839;28;20025;-63
2022/12/22 07:25:37;;;;;;;27.85;7.60;;;12.60;99.90;;;;;;5033126;28;20033;-63
2022/12/22 07:28:04;;;;;;;29.25;6.97;;;12.60;99.90;;;;;;5038558;28;20094;-62
2022/12/22 07:30:30;;;;;;;30.65;7.45;;;12.70;99.90;;;;;;5053552;28;20032;-64
2022/12/22 07:32:56;;;;;;;29.90;7.70;;;12.60;99.90;;;;;;5053313;28;20079;-64
2022/12/22 07:35:21;;;;;;;31.52;8.35;;;12.50;99.90;;;;;;5053326;28;20382;-64
2022/12/22 07:37:48;;;;;;;30.80;7.85;;;12.50;99.90;;;;;;5052140;28;20020;-62
2022/12/22 07:40:14;;;;;;;32.40;7.97;;;12.40;99.90;;;;;;5053269;28;20029;-63
2022/12/22 07:42:43;;;;;;;34.55;8.57;;;12.30;99.90;;;;;;5053276;28;20021;-64
2022/12/22 07:45:18;;;;;;;35.63;12.18;;;12.20;99.90;;;;;;5053235;28;20032;-63
2022/12/22 07:47:45;;;;;;;35.40;12.38;;;12.20;99.90;;;;;;5053147;28;20025;-64
2022/12/22 07:50:23;;;;;;;37.72;8.88;;;12.20;99.90;;;;;;5052783;28;20481;-65
2022/12/22 07:52:54;;;;;;;32.95;8.02;;;12.20;99.90;;;;;;5053054;28;20044;-65
2022/12/22 07:55:20;;;;;;;33.78;8.73;;;12.20;99.90;;;;;;5052933;28;20040;-65
2022/12/22 07:57:46;;;;;;;34.78;8.52;;;12.10;99.90;;;;;;5053071;28;20435;-64
2022/12/22 08:00:13;;;;;;;33.65;9.13;;;12.10;99.90;;;;;;5052903;28;20624;-63
2022/12/22 08:02:39;;;;;;;34.67;9.18;;;12.20;99.90;;;;;;5052535;28;20049;-65
2022/12/22 08:05:06;;;;;;;36.10;8.98;;;12.30;99.90;;;;;;5052910;28;20063;-66
2022/12/22 08:07:31;;;;;;;36.13;8.95;;;12.40;99.90;;;;;;5052724;28;20033;-63
2022/12/22 08:09:58;;;;;;;36.50;8.85;;;12.30;99.90;;;;;;5052386;28;20041;-63
2022/12/22 08:12:23;;;;;;;33.92;8.18;;;12.30;99.90;;;;;;5052721;28;20025;-63
2022/12/22 08:14:49;;;;;;;26.35;7.63;;;12.30;99.90;;;;;;5052552;28;20032;-63
2022/12/22 08:17:16;;;;;;;27.00;6.93;;;12.30;99.90;;;;;;5052955;28;20045;-63
2022/12/22 08:19:42;;;;;;;34.22;7.57;;;12.20;99.90;;;;;;5052193;28;20032;-63
2022/12/22 08:22:07;;;;;;;25.98;7.28;;;12.20;99.90;;;;;;5052472;28;20103;-63
2022/12/22 08:24:33;;;;;;;31.48;7.50;;;12.20;99.90;;;;;;5052811;28;20021;-63
2022/12/22 08:27:03;;;;;;;26.42;7.25;;;12.50;99.90;;;;;;5052392;28;20029;-63
2022/12/22 08:29:35;;;;;;;19.05;6.38;;;13.40;99.90;;;;;;5052100;28;20078;-63
2022/12/22 08:32:02;;;;;;;23.05;6.63;;;14.10;99.90;;;;;;5052273;28;20028;-63
2022/12/22 08:34:28;;;;;;;22.27;6.30;;;14.70;99.90;;;;;;5051914;28;20083;-63
2022/12/22 08:36:58;;;;;;;20.40;6.25;;;14.00;99.90;;;;;;5052311;28;20511;-63
2022/12/22 08:39:26;;;;;;;20.55;5.82;;;13.70;99.90;;;;;;5052086;28;20024;-63
2022/12/22 08:41:53;;;;;;;16.65;5.45;;;13.50;99.90;;;;;;5052442;28;20021;-63
2022/12/22 08:44:27;;;;;;;23.45;5.63;;;13.50;99.90;;;;;;5052393;28;20103;-63
2022/12/22 08:46:55;;;;;;;20.13;5.50;;;13.30;99.90;;;;;;5052066;28;20032;-63
2022/12/22 08:49:21;;;;;;;17.38;6.40;;;13.30;99.90;;;;;;5051754;28;20026;-63
2022/12/22 08:51:47;;;;;;;22.33;6.20;;;13.00;99.90;;;;;;5052084;28;20019;-63
2022/12/22 08:54:14;;;;;;;16.30;5.90;;;13.00;99.90;;;;;;5052258;28;20371;-63
2022/12/22 08:56:40;;;;;;;19.20;6.00;;;13.00;99.90;;;;;;5052040;28;20035;-63
2022/12/22 08:59:07;;;;;;;16.25;5.53;;;13.10;99.90;;;;;;5052137;28;20036;-63
2022/12/22 09:01:35;;;;;;;19.20;5.70;;;13.00;99.90;;;;;;5052244;28;20025;-63
2022/12/22 09:04:01;;;;;;;17.80;5.47;;;13.00;99.90;;;;;;5051476;28;20033;-63
2022/12/22 09:06:28;;;;;;;20.23;5.85;;;12.90;99.90;;;;;;5052041;28;20029;-63
2022/12/22 09:08:59;;;;;;;16.65;4.88;;;13.20;99.90;;;;;;5051601;28;20268;-63
2022/12/22 09:11:26;;;;;;;16.40;4.63;;;14.10;99.90;;;;;;5052031;28;20017;-62
2022/12/22 09:13:54;;;;;;;17.17;4.75;;;16.30;99.90;;;;;;5051739;28;20396;-62
2022/12/22 09:16:21;;;;;;;12.98;4.97;;;17.80;99.90;;;;;;5052183;28;20028;-63
2022/12/22 09:18:48;;;;;;;15.70;4.35;;;18.70;99.90;;;;;;5051330;28;20457;-63
2022/12/22 09:21:14;;;;;;;10.85;4.38;;;18.90;99.90;;;;;;5052096;28;20053;-62
2022/12/22 09:23:40;;;;;;;13.40;4.65;;;19.20;99.90;;;;;;5051835;28;20043;-63
2022/12/22 09:26:11;;;;;;;11.00;4.45;;;17.10;99.90;;;;;;5051261;28;20526;-63
2022/12/22 09:28:37;;;;;;;8.98;3.88;;;17.50;99.90;;;;;;5052042;28;20033;-63
2022/12/22 09:31:04;;;;;;;13.70;4.18;;;19.70;99.90;;;;;;5051775;28;20057;-63
2022/12/22 09:33:31;;;;;;;11.60;4.10;;;17.90;99.90;;;;;;5049963;28;20119;-63
2022/12/22 09:35:58;;;;;;;12.13;3.92;;;16.70;99.90;;;;;;5051627;28;20040;-63
2022/12/22 09:38:27;;;;;;;11.75;3.92;;;15.80;99.90;;;;;;5052043;28;20017;-63
2022/12/22 09:40:56;;;;;;;13.35;4.35;;;15.50;99.90;;;;;;5051595;28;20056;-63
2022/12/22 09:43:28;;;;;;;11.23;3.83;;;15.50;99.90;;;;;;5051647;28;20025;-63
2022/12/22 09:45:57;;;;;;;9.75;3.63;;;15.90;99.90;;;;;;5051544;28;20017;-63
2022/12/22 09:48:26;;;;;;;12.35;4.05;;;15.80;99.90;;;;;;5051195;28;20385;-63
2022/12/22 09:50:52;;;;;;;10.32;3.65;;;15.60;99.90;;;;;;5052687;28;20044;-63
2022/12/22 09:53:22;;;;;;;8.68;3.55;;;15.60;99.90;;;;;;5055412;28;20477;-63
2022/12/22 09:55:49;;;;;;;9.18;3.63;;;15.50;99.90;;;;;;5055394;28;20025;-63
2022/12/22 09:58:27;;;;;;;8.32;3.22;;;15.50;99.90;;;;;;5055656;28;20025;-63
2022/12/22 10:01:10;;;;;;;9.10;3.38;;;15.50;99.90;;;;;;5054901;28;20112;-63
2022/12/22 10:03:47;;;;;;;8.82;3.45;;;15.40;99.90;;;;;;5055076;28;20111;-63
2022/12/22 10:06:19;;;;;;;10.15;3.40;;;15.30;99.90;;;;;;5055072;28;20028;-63
2022/12/22 10:08:45;;;;;;;8.02;3.30;;;15.40;99.90;;;;;;5054880;28;20552;-63
2022/12/22 10:11:14;;;;;;;9.00;2.95;;;15.40;99.90;;;;;;5055048;28;20035;-63
2022/12/22 10:13:40;;;;;;;6.82;2.88;;;15.50;99.90;;;;;;5054955;28;20037;-63
2022/12/22 10:16:21;;;;;;;7.38;3.03;;;15.60;99.90;;;;;;5054445;28;20494;-63
2022/12/22 10:18:55;;;;;;;7.75;3.10;;;15.50;99.90;;;;;;5054982;28;20033;-63
2022/12/22 10:21:23;;;;;;;7.55;2.83;;;15.40;99.90;;;;;;5055181;28;20029;-63
2022/12/22 10:23:48;;;;;;;7.88;2.95;;;15.30;99.90;;;;;;5055341;28;20029;-63
2022/12/22 10:26:16;;;;;;;8.30;3.10;;;15.30;99.90;;;;;;5055326;28;20028;-63
2022/12/22 10:29:15;;;;;;;7.60;2.78;;;15.40;99.90;;;;;;5054461;28;20068;-63
2022/12/22 10:32:11;;;;;;;8.02;2.95;;;15.20;99.90;;;;;;5032159;28;20044;-63
2022/12/22 10:34:42;;;;;;;9.98;3.30;;;15.10;99.90;;;;;;5032126;28;20049;-63
2022/12/22 10:37:08;;;;;;;6.72;2.67;;;15.10;99.90;;;;;;5033009;28;20041;-63
2022/12/22 10:39:35;;;;;;;11.88;3.10;;;15.00;99.90;;;;;;5032295;28;20140;-63
2022/12/22 10:42:13;;;;;;;8.25;2.90;;;15.00;99.90;;;;;;5031885;28;20033;-64
2022/12/22 10:44:45;;;;;;;7.55;2.65;;;15.10;99.90;;;;;;5030945;28;20036;-63
2022/12/22 10:47:23;;;;;;;9.05;2.97;;;15.20;99.90;;;;;;5032269;28;20112;-63
2022/12/22 10:49:50;;;;;;;7.18;2.65;;;15.10;99.90;;;;;;5032100;28;20033;-63
2022/12/22 10:52:23;;;;;;;11.05;2.95;;;15.10;99.90;;;;;;5032081;28;20439;-63
2022/12/22 10:54:49;;;;;;;8.45;3.00;;;15.20;99.90;;;;;;5032205;28;20124;-63
2022/12/22 10:57:15;;;;;;;6.80;2.50;;;15.30;99.90;;;;;;5032264;28;20108;-63
2022/12/22 10:59:46;;;;;;;5.72;2.67;;;15.50;99.90;;;;;;5032070;28;20487;-63
2022/12/22 11:02:27;;;;;;;8.63;3.03;;;15.60;99.90;;;;;;5029442;28;20569;-62
2022/12/22 11:04:59;;;;;;;8.02;3.00;;;16.10;99.90;;;;;;5031901;28;20079;-62
2022/12/22 11:07:25;;;;;;;8.65;2.88;;;16.20;99.90;;;;;;5044199;28;20072;-62
2022/12/22 11:09:51;;;;;;;10.23;5.50;;;16.10;99.90;;;;;;5053156;28;20053;-63
2022/12/22 11:12:28;;;;;;;9.25;3.53;;;16.20;99.90;;;;;;5053533;28;20055;-63
2022/12/22 11:15:03;;;;;;;21.45;15.57;;;17.50;99.90;;;;;;5053559;28;20423;-63
2022/12/22 11:17:49;;;;;;;8.75;3.70;;;20.50;99.90;;;;;;5053763;28;20029;-63
2022/12/22 11:20:36;;;;;;;14.30;3.63;;;21.40;99.90;;;;;;5054211;28;20052;-63
2022/12/22 11:23:23;;;;;;;7.65;3.40;;;21.10;99.90;;;;;;5053792;28;20025;-64
2022/12/22 11:26:09;;;;;;;11.52;5.63;;;19.80;99.90;;;;;;5053545;28;20040;-63
2022/12/22 11:28:56;;;;;;;8.70;3.15;;;19.30;99.90;;;;;;5053032;28;20021;-63
2022/12/22 11:31:50;;;;;;;9.70;2.92;;;18.20;99.90;;;;;;5053825;28;20599;-64
2022/12/22 11:34:16;;;;;;;10.90;2.83;;;17.80;99.90;;;;;;5053543;28;20119;-63
2022/12/22 11:36:56;;;;;;;10.93;3.08;;;18.00;99.90;;;;;;5053468;28;20458;-64
2022/12/22 11:40:02;;;;;;;8.15;2.85;;;18.40;99.90;;;;;;5053403;28;20059;-64
2022/12/22 11:42:49;;;;;;;10.43;3.08;;;18.80;99.90;;;;;;5053038;28;20024;-63
2022/12/22 11:45:20;;;;;;;9.07;2.83;;;18.40;99.90;;;;;;5053673;28;20029;-63
2022/12/22 11:48:23;;;;;;;7.97;2.97;;;18.40;99.90;;;;;;5053290;28;20450;-62
2022/12/22 11:50:52;;;;;;;9.48;3.28;;;18.00;99.90;;;;;;5053034;28;20033;-63
2022/12/22 11:53:27;;;;;;;8.05;2.67;;;17.70;99.90;;;;;;5052826;28;20048;-63
2022/12/22 11:56:18;;;;;;;8.82;3.15;;;17.90;99.90;;;;;;5052747;28;20025;-63
2022/12/22 11:58:50;;;;;;;12.18;3.80;;;17.40;99.90;;;;;;5052690;28;20144;-63
2022/12/22 12:01:30;;;;;;;8.15;2.80;;;17.30;99.90;;;;;;5052875;28;20118;-63
2022/12/22 12:04:33;;;;;;;9.93;3.17;;;17.30;99.90;;;;;;5052834;28;20112;-63
2022/12/22 12:07:24;;;;;;;7.78;2.75;;;17.10;99.90;;;;;;5052710;28;20032;-63
2022/12/22 12:10:05;;;;;;;9.25;3.10;;;17.10;99.90;;;;;;5052400;28;20133;-63
2022/12/22 12:13:21;;;;;;;9.90;2.85;;;17.00;99.90;;;;;;5052250;28;20039;-63
2022/12/22 12:16:06;;;;;;;8.60;2.90;;;16.80;99.90;;;;;;5010778;28;20085;-64
2022/12/22 12:18:48;;;;;;;10.02;3.55;;;16.60;99.90;;;;;;5011103;28;20038;-64
2022/12/22 12:21:38;;;;;;;7.63;2.80;;;16.60;99.90;;;;;;5010779;28;20022;-68
2022/12/22 12:24:33;;;;;;;8.93;2.78;;;16.50;99.90;;;;;;5010425;28;20152;-62
2022/12/22 12:27:25;;;;;;;9.70;3.03;;;16.40;99.90;;;;;;4932769;29;20039;-63
2022/12/22 12:30:04;;;;;;;5.97;2.65;;;16.50;99.90;;;;;;4933146;29;20039;-64
2022/12/22 12:32:54;;;;;;;9.30;2.80;;;16.50;99.90;;;;;;4933091;29;20039;-64
2022/12/22 12:35:47;;;;;;;8.95;2.67;;;16.40;99.90;;;;;;4933001;29;20075;-67
2022/12/22 12:38:38;;;;;;;8.37;2.57;;;16.40;99.90;;;;;;4932905;29;20046;-63
2022/12/22 12:41:15;;;;;;;8.75;2.95;;;16.40;99.90;;;;;;4932728;29;20483;-63
2022/12/22 12:43:42;;;;;;;6.63;2.80;;;16.20;99.90;;;;;;4932938;29;20091;-63
2022/12/22 12:46:45;;;;;;;7.38;2.85;;;16.10;99.90;;;;;;4933001;29;20087;-63
2022/12/22 12:49:35;;;;;;;8.20;3.20;;;16.10;99.90;;;;;;4932870;29;20514;-63
2022/12/22 12:52:06;;;;;;;10.93;3.70;;;16.00;99.90;;;;;;4966507;28;20487;-64
2022/12/22 12:54:32;;;;;;;9.02;3.30;;;15.90;99.90;;;;;;4970739;28;20058;-63
2022/12/22 12:57:11;;;;;;;8.48;3.22;;;15.90;99.90;;;;;;4971731;28;20186;-63
2022/12/22 12:59:39;;;;;;;6.18;2.60;;;15.90;99.90;;;;;;4971242;28;20031;-63
2022/12/22 13:02:26;;;;;;;6.63;2.63;;;15.90;99.90;;;;;;4971284;28;20085;-63
2022/12/22 13:05:06;;;;;;;6.70;2.70;;;15.90;99.90;;;;;;5028440;28;20037;-63
2022/12/22 13:08:10;;;;;;;7.80;2.50;;;15.90;99.90;;;;;;5032412;28;20037;-63
2022/12/22 13:10:49;;;;;;;6.10;2.80;;;15.80;99.90;;;;;;5031966;28;20498;-63
2022/12/22 13:13:20;;;;;;;11.93;3.30;;;15.70;99.90;;;;;;5031888;28;20030;-63
2022/12/22 13:15:59;;;;;;;8.40;3.05;;;15.70;99.90;;;;;;5031976;28;20029;-63
2022/12/22 13:18:25;;;;;;;10.63;2.45;;;15.70;99.90;;;;;;5031954;28;20386;-63
2022/12/22 13:21:20;;;;;;;8.60;2.60;;;15.60;99.90;;;;;;5031876;28;20037;-63
2022/12/22 13:24:00;;;;;;;7.88;2.63;;;15.70;99.90;;;;;;5031513;28;20022;-63
2022/12/22 13:26:39;;;;;;;9.77;2.78;;;15.70;99.90;;;;;;5034060;28;20037;-63
2022/12/22 13:29:26;;;;;;;9.32;2.90;;;15.70;99.90;;;;;;5050646;28;20017;-63
2022/12/22 13:32:00;;;;;;;7.50;2.70;;;15.70;99.90;;;;;;5055699;28;20091;-64
2022/12/22 13:34:51;;;;;;;7.93;2.65;;;15.60;99.90;;;;;;5055604;28;20128;-63
2022/12/22 13:37:23;;;;;;;7.40;2.92;;;15.50;99.90;;;;;;5055456;28;20025;-63
2022/12/22 13:40:15;;;;;;;10.35;3.00;;;15.60;99.90;;;;;;5055362;28;20493;-63
2022/12/22 13:42:56;;;;;;;8.02;3.10;;;15.40;99.90;;;;;;5055440;28;20021;-64
2022/12/22 13:45:41;;;;;;;5.72;2.95;;;15.40;99.90;;;;;;5055387;28;20040;-64
2022/12/22 13:48:19;;;;;;;9.55;3.00;;;15.40;99.90;;;;;;5055380;28;20162;-64
2022/12/22 13:50:51;;;;;;;9.38;3.65;;;15.20;99.90;;;;;;5055275;28;20032;-63
2022/12/22 13:54:00;;;;;;;9.32;3.95;;;15.10;99.90;;;;;;5054821;28;20032;-64
2022/12/22 13:56:38;;;;;;;11.32;5.40;;;15.10;99.90;;;;;;5033089;28;20127;-64
2022/12/22 13:59:15;;;;;;;14.48;5.05;;;15.10;99.90;;;;;;5033264;28;20056;-63
2022/12/22 14:01:54;;;;;;;12.25;4.90;;;15.00;99.90;;;;;;5033409;28;20072;-64
2022/12/22 14:04:22;;;;;;;11.02;3.40;;;15.00;99.90;;;;;;5033239;28;20029;-63
2022/12/22 14:06:47;;;;;;;11.30;3.47;;;15.00;99.90;;;;;;5032945;28;20025;-64
2022/12/22 14:09:24;;;;;;;11.40;3.45;;;15.10;99.90;;;;;;5032620;28;20461;-63
2022/12/22 14:12:01;;;;;;;11.82;3.95;;;15.00;99.90;;;;;;5033023;28;20068;-63
2022/12/22 14:14:39;;;;;;;11.10;3.80;;;15.00;99.90;;;;;;5032825;28;20045;-64
2022/12/22 14:17:25;;;;;;;13.77;3.67;;;15.00;99.90;;;;;;5033142;28;20030;-63
2022/12/22 14:19:57;;;;;;;12.93;3.50;;;15.00;99.90;;;;;;5032225;28;20093;-64
2022/12/22 14:22:32;;;;;;;12.65;4.43;;;15.00;99.90;;;;;;5032717;28;20415;-63
2022/12/22 14:25:02;;;;;;;11.50;3.83;;;15.00;99.90;;;;;;5032220;28;20429;-63
2022/12/22 14:27:36;;;;;;;12.68;4.10;;;15.00;99.90;;;;;;5035132;28;20046;-63
2022/12/22 14:30:22;;;;;;;12.30;4.07;;;15.00;99.90;;;;;;5054712;28;20493;-63
2022/12/22 14:32:50;;;;;;;11.50;4.55;;;15.00;99.90;;;;;;5054477;28;20083;-64
2022/12/22 14:35:21;;;;;;;11.88;3.80;;;15.00;99.90;;;;;;5054346;28;20187;-63
2022/12/22 14:37:48;;;;;;;12.85;3.30;;;15.10;99.90;;;;;;5053977;28;20025;-63
2022/12/22 14:40:35;;;;;;;9.55;3.05;;;15.10;99.90;;;;;;5054382;28;20515;-64
2022/12/22 14:43:04;;;;;;;13.32;3.15;;;15.10;99.90;;;;;;5054750;28;20045;-63
2022/12/22 14:45:30;;;;;;;11.20;3.35;;;15.20;99.90;;;;;;5054746;28;20025;-63
2022/12/22 14:47:56;;;;;;;13.45;3.35;;;15.20;99.90;;;;;;5054262;28;20040;-64
2022/12/22 14:50:27;;;;;;;8.35;3.20;;;15.10;99.90;;;;;;5054654;28;20350;-64
2022/12/22 14:52:57;;;;;;;11.75;2.97;;;15.10;99.90;;;;;;5053814;28;20024;-64
2022/12/22 14:55:26;;;;;;;7.30;2.70;;;15.10;99.90;;;;;;5054152;28;20033;-63
2022/12/22 14:58:20;;;;;;;9.57;2.55;;;15.10;99.90;;;;;;5054122;28;20029;-64
2022/12/22 15:01:11;;;;;;;8.00;2.60;;;15.10;99.90;;;;;;5054063;28;20029;-63
2022/12/22 15:03:39;;;;;;;9.38;2.90;;;15.10;99.90;;;;;;5053886;28;20389;-63
2022/12/22 15:06:27;;;;;;;10.45;2.95;;;15.00;99.90;;;;;;5053633;28;20017;-63
2022/12/22 15:09:05;;;;;;;8.50;2.72;;;15.00;99.90;;;;;;5053699;28;20069;-63
2022/12/22 15:11:31;;;;;;;8.90;3.33;;;15.00;99.90;;;;;;5054179;28;20104;-63
2022/12/22 15:13:57;;;;;;;9.27;2.78;;;14.90;99.90;;;;;;5053580;28;20569;-64
2022/12/22 15:16:24;;;;;;;8.13;2.40;;;14.90;99.90;;;;;;5053763;28;20096;-63
2022/12/22 15:18:51;;;;;;;6.18;2.13;;;14.90;99.90;;;;;;5053718;28;20029;-63
2022/12/22 15:21:18;;;;;;;9.80;2.53;;;14.90;99.90;;;;;;5053786;28;20029;-63
2022/12/22 15:23:44;;;;;;;10.30;2.90;;;14.80;99.90;;;;;;5053658;28;20052;-64
2022/12/22 15:26:10;;;;;;;8.95;2.40;;;14.80;99.90;;;;;;5053599;28;20071;-64
2022/12/22 15:28:36;;;;;;;10.25;2.65;;;14.70;99.90;;;;;;5053730;28;20017;-64
2022/12/22 15:31:05;;;;;;;10.68;2.72;;;14.70;99.90;;;;;;5053653;28;20559;-63
2022/12/22 15:33:31;;;;;;;11.13;2.60;;;14.60;99.90;;;;;;5053255;28;20528;-64
2022/12/22 15:35:57;;;;;;;11.35;3.10;;;14.70;99.90;;;;;;5053494;28;20037;-63
2022/12/22 15:38:24;;;;;;;9.82;2.53;;;14.70;99.90;;;;;;5053546;28;20050;-64
2022/12/22 15:40:50;;;;;;;8.77;2.72;;;14.60;99.90;;;;;;5053271;28;20025;-63
2022/12/22 15:43:17;;;;;;;10.05;2.78;;;14.50;99.90;;;;;;5053502;28;20036;-63
2022/12/22 15:45:44;;;;;;;12.80;3.63;;;14.50;99.90;;;;;;5053384;28;20082;-63
2022/12/22 15:48:17;;;;;;;8.07;3.22;;;14.60;99.90;;;;;;5052932;28;20029;-63
2022/12/22 15:50:43;;;;;;;8.55;3.50;;;14.50;99.90;;;;;;5052883;28;20467;-64
2022/12/22 15:53:17;;;;;;;8.50;3.60;;;14.50;99.90;;;;;;5052979;28;20110;-63
2022/12/22 15:55:46;;;;;;;10.25;4.20;;;14.50;99.90;;;;;;5053102;28;20037;-64
2022/12/22 15:58:21;;;;;;;12.25;8.60;;;14.50;99.90;;;;;;5053025;28;20029;-63
2022/12/22 16:00:47;;;;;;;13.63;7.07;;;14.40;99.90;;;;;;5052903;28;20029;-64
2022/12/22 16:03:13;;;;;;;16.25;11.55;;;14.40;99.90;;;;;;5052574;28;20031;-63
2022/12/22 16:05:40;;;;;;;19.15;13.40;;;14.40;99.90;;;;;;5052804;28;20052;-63
2022/12/22 16:08:27;;;;;;;14.77;9.65;;;14.40;99.90;;;;;;5052736;28;20481;-64
2022/12/22 16:10:53;;;;;;;19.42;10.95;;;14.40;99.90;;;;;;5052743;28;20035;-64
2022/12/22 16:13:24;;;;;;;20.33;11.57;;;14.40;99.90;;;;;;5052742;28;20100;-63
2022/12/22 16:15:49;;;;;;;12.20;6.30;;;14.40;99.90;;;;;;5052948;28;20098;-63
2022/12/22 16:18:16;;;;;;;13.10;4.65;;;14.40;99.90;;;;;;5052245;28;20021;-64
2022/12/22 16:20:42;;;;;;;12.65;8.02;;;14.40;99.90;;;;;;5052607;28;20056;-63
2022/12/22 16:23:17;;;;;;;11.68;5.68;;;14.40;99.90;;;;;;5052758;28;20067;-63
2022/12/22 16:25:45;;;;;;;13.77;5.25;;;14.30;99.90;;;;;;5052595;28;20437;-64
2022/12/22 16:28:20;;;;;;;14.63;6.15;;;14.30;99.90;;;;;;5052342;28;20029;-64
2022/12/22 16:30:46;;;;;;;11.20;6.22;;;14.40;99.90;;;;;;5052369;28;20059;-64
2022/12/22 16:33:13;;;;;;;16.50;10.70;;;14.40;99.90;;;;;;5052044;28;20068;-63
2022/12/22 16:35:39;;;;;;;18.33;10.18;;;14.40;99.90;;;;;;5052597;28;20036;-63
2022/12/22 16:38:05;;;;;;;19.58;14.10;;;14.40;99.90;;;;;;5052418;28;20033;-63
2022/12/22 16:40:33;;;;;;;17.33;8.25;;;14.50;99.90;;;;;;5052721;28;20036;-63